Time;durP1;ratioP1;P1;durP2;ratioP2;P2;SDS_P1;SDS_P2;PMS_P1;PMS_P2;Temp;Humidity;BMP_temperature;BMP_pressure;BME280_temperature;BME280_humidity;BME280_pressure;Samples;Min_cycle;Max_cycle;Signal;HPM_P1;HPM_P2
2022/05/16 00:00:24;;;;;;;12.67;9.27;;;15.30;99.90;;;;;;5051201;28;20297;-78
2022/05/16 00:02:51;;;;;;;12.97;9.00;;;15.20;99.90;;;;;;5047328;28;20269;-78
2022/05/16 00:05:22;;;;;;;13.03;9.40;;;15.10;99.90;;;;;;5051355;28;20199;-78
2022/05/16 00:07:49;;;;;;;14.97;9.37;;;15.20;99.90;;;;;;5050827;28;20279;-78
2022/05/16 00:10:17;;;;;;;12.23;9.20;;;15.20;99.90;;;;;;5051531;28;20298;-77
2022/05/16 00:12:44;;;;;;;12.57;8.60;;;15.00;99.90;;;;;;5050845;28;20223;-78
2022/05/16 00:15:13;;;;;;;13.83;8.40;;;15.00;99.90;;;;;;5051387;28;20277;-78
2022/05/16 00:17:41;;;;;;;12.30;9.00;;;14.90;99.90;;;;;;5050948;28;20227;-78
2022/05/16 00:20:09;;;;;;;14.20;8.57;;;14.90;99.90;;;;;;5051479;28;20227;-78
2022/05/16 00:22:37;;;;;;;12.07;8.43;;;14.90;99.90;;;;;;5050960;28;20231;-78
2022/05/16 00:25:06;;;;;;;11.63;7.93;;;15.00;99.90;;;;;;5052013;28;20200;-78
2022/05/16 00:27:34;;;;;;;12.57;8.33;;;14.80;99.90;;;;;;5051040;28;20199;-77
2022/05/16 00:30:01;;;;;;;14.03;7.93;;;14.80;99.90;;;;;;5043469;28;20210;-78
2022/05/16 00:32:28;;;;;;;11.77;8.10;;;14.80;99.90;;;;;;5051282;28;20287;-77
2022/05/16 00:34:57;;;;;;;12.70;8.13;;;14.90;99.90;;;;;;5050330;28;20239;-77
2022/05/16 00:37:23;;;;;;;11.70;8.10;;;14.70;99.90;;;;;;5051219;28;20216;-78
2022/05/16 00:39:50;;;;;;;11.90;7.90;;;14.60;99.90;;;;;;5050386;28;20235;-77
2022/05/16 00:42:19;;;;;;;11.60;7.83;;;14.70;99.90;;;;;;5045138;28;20231;-78
2022/05/16 00:44:46;;;;;;;12.10;7.10;;;14.70;99.90;;;;;;5050504;28;20238;-78
2022/05/16 00:47:13;;;;;;;10.17;7.63;;;14.70;99.90;;;;;;5052918;28;20227;-78
2022/05/16 00:49:44;;;;;;;10.70;7.93;;;14.60;99.90;;;;;;5055106;28;20282;-78
2022/05/16 00:52:17;;;;;;;10.73;7.33;;;14.60;99.90;;;;;;5051079;28;20283;-77
2022/05/16 00:54:49;;;;;;;11.23;7.33;;;14.60;99.90;;;;;;5054707;28;20232;-78
2022/05/16 00:57:19;;;;;;;10.47;7.33;;;14.60;99.90;;;;;;5054571;28;20243;-77
2022/05/16 00:59:52;;;;;;;9.80;6.97;;;14.50;99.90;;;;;;5054450;28;20258;-78
2022/05/16 01:05:13;;;;;;;13.03;7.00;;;14.50;99.90;;;;;;5012398;28;20205;-77
2022/05/16 01:07:44;;;;;;;11.93;7.50;;;14.60;99.90;;;;;;4995201;28;20280;-78
2022/05/16 01:10:14;;;;;;;10.13;7.40;;;14.50;99.90;;;;;;5002790;28;20268;-78
2022/05/16 01:12:44;;;;;;;12.37;7.40;;;14.40;99.90;;;;;;5005971;28;20279;-78
2022/05/16 01:15:15;;;;;;;11.63;7.57;;;14.50;99.90;;;;;;5012071;28;20288;-77
2022/05/16 01:17:42;;;;;;;12.73;7.30;;;14.50;99.90;;;;;;5012186;28;20251;-77
2022/05/16 01:20:11;;;;;;;11.33;7.23;;;14.50;99.90;;;;;;5001734;28;20204;-77
2022/05/16 01:22:42;;;;;;;11.23;7.30;;;14.40;99.90;;;;;;5007148;28;20293;-77
2022/05/16 01:25:12;;;;;;;13.63;7.40;;;14.30;99.90;;;;;;4992659;28;20212;-77
2022/05/16 01:27:45;;;;;;;10.53;7.50;;;14.30;99.90;;;;;;4993115;28;20226;-77
2022/05/16 01:30:14;;;;;;;8.20;7.27;;;14.30;99.90;;;;;;5008384;28;20685;-78
2022/05/16 01:32:41;;;;;;;12.20;7.03;;;14.20;99.90;;;;;;5010349;28;20677;-78
2022/05/16 01:35:09;;;;;;;14.33;7.00;;;14.30;99.90;;;;;;5008151;28;20296;-77
2022/05/16 01:40:22;;;;;;;11.00;6.70;;;14.30;99.90;;;;;;5009301;28;20750;-77
2022/05/16 01:42:49;;;;;;;13.53;6.70;;;14.30;99.90;;;;;;5049212;28;20239;-78
2022/05/16 01:45:16;;;;;;;12.53;6.83;;;14.30;99.90;;;;;;5053635;28;20731;-78
2022/05/16 01:47:43;;;;;;;9.97;6.90;;;14.30;99.90;;;;;;5053215;28;20686;-77
2022/05/16 01:50:10;;;;;;;11.03;6.87;;;14.30;99.90;;;;;;5053377;28;20235;-78
2022/05/16 01:52:37;;;;;;;11.83;6.47;;;14.40;99.90;;;;;;5053456;28;20227;-77
2022/05/16 01:55:04;;;;;;;10.53;6.40;;;14.40;99.90;;;;;;5053962;28;20614;-78
2022/05/16 01:57:33;;;;;;;10.90;6.77;;;14.40;99.90;;;;;;5053610;28;20242;-79
2022/05/16 02:00:00;;;;;;;10.97;6.90;;;14.30;99.90;;;;;;5052825;28;20287;-78
2022/05/16 02:02:27;;;;;;;10.13;6.53;;;14.40;99.90;;;;;;5053393;28;20231;-76
2022/05/16 02:04:54;;;;;;;9.80;6.77;;;14.20;99.90;;;;;;5053561;28;20200;-77
2022/05/16 02:07:22;;;;;;;12.87;7.13;;;14.20;99.90;;;;;;5053773;28;20196;-78
2022/05/16 02:09:49;;;;;;;10.33;6.77;;;14.20;99.90;;;;;;5052724;28;20298;-78
2022/05/16 02:12:15;;;;;;;11.47;6.80;;;14.00;99.90;;;;;;5052807;28;20283;-76
2022/05/16 02:14:44;;;;;;;13.00;7.00;;;14.10;99.90;;;;;;5052565;28;21014;-76
2022/05/16 02:17:11;;;;;;;10.67;6.90;;;14.10;99.90;;;;;;5052549;28;20227;-78
2022/05/16 02:19:38;;;;;;;13.17;7.03;;;14.00;99.90;;;;;;5052992;28;20310;-78
2022/05/16 02:24:49;;;;;;;11.10;7.03;;;14.00;99.90;;;;;;5052527;28;20203;-78
2022/05/16 02:27:17;;;;;;;12.67;7.10;;;14.00;99.90;;;;;;5052960;28;20224;-78
2022/05/16 02:29:46;;;;;;;12.50;7.73;;;13.90;99.90;;;;;;5052834;28;20191;-78
2022/05/16 02:32:14;;;;;;;12.17;7.20;;;13.90;99.90;;;;;;5053092;28;20246;-79
2022/05/16 02:34:41;;;;;;;15.37;7.40;;;13.80;99.90;;;;;;5051858;28;20219;-78
2022/05/16 02:37:08;;;;;;;12.27;7.20;;;13.80;99.90;;;;;;5052743;28;20210;-78
2022/05/16 02:39:36;;;;;;;17.80;7.67;;;13.90;99.90;;;;;;5052506;28;20310;-78
2022/05/16 02:42:03;;;;;;;13.50;7.47;;;13.80;99.90;;;;;;5052424;28;20227;-76
2022/05/16 02:44:30;;;;;;;11.10;7.60;;;13.80;99.90;;;;;;5052739;28;20228;-78
2022/05/16 02:46:58;;;;;;;10.97;7.47;;;13.80;99.90;;;;;;5052258;28;20766;-78
2022/05/16 02:49:27;;;;;;;12.87;7.60;;;13.90;99.90;;;;;;5052684;28;20220;-78
2022/05/16 02:51:54;;;;;;;13.67;7.53;;;13.80;99.90;;;;;;5052318;28;20230;-78
2022/05/16 02:54:21;;;;;;;12.97;7.53;;;13.90;99.90;;;;;;5046922;28;20243;-78
2022/05/16 02:56:48;;;;;;;13.80;7.37;;;13.90;99.90;;;;;;5051782;28;20273;-78
2022/05/16 02:59:14;;;;;;;14.53;6.93;;;13.90;99.90;;;;;;5052435;28;20303;-78
2022/05/16 03:01:41;;;;;;;14.67;7.27;;;14.00;99.90;;;;;;5052245;28;20250;-78
2022/05/16 03:04:13;;;;;;;13.10;7.03;;;13.90;99.90;;;;;;5052486;28;20254;-78
2022/05/16 03:06:42;;;;;;;13.23;7.07;;;13.90;99.90;;;;;;5052397;28;20282;-78
2022/05/16 03:09:09;;;;;;;14.03;6.77;;;13.80;99.90;;;;;;5051755;28;20226;-78
2022/05/16 03:11:36;;;;;;;14.10;6.97;;;13.70;99.90;;;;;;5051184;28;20287;-78
2022/05/16 03:14:03;;;;;;;12.13;6.77;;;13.70;99.90;;;;;;5051585;28;20318;-78
2022/05/16 03:16:30;;;;;;;12.97;6.97;;;13.70;99.90;;;;;;5052294;28;20235;-78
2022/05/16 03:18:57;;;;;;;14.27;7.37;;;13.60;99.90;;;;;;5052082;28;20223;-78
2022/05/16 03:21:25;;;;;;;14.87;6.73;;;13.60;99.90;;;;;;5052045;28;20249;-78
2022/05/16 03:23:52;;;;;;;13.17;7.00;;;13.60;99.90;;;;;;5050956;28;20235;-78
2022/05/16 03:26:19;;;;;;;14.83;7.33;;;13.50;99.90;;;;;;5051886;28;20287;-78
2022/05/16 03:28:46;;;;;;;13.40;7.30;;;13.50;99.90;;;;;;5052006;28;20282;-78
2022/05/16 03:31:13;;;;;;;11.10;7.20;;;13.50;99.90;;;;;;5051309;28;20238;-79
2022/05/16 03:33:40;;;;;;;14.33;7.10;;;13.50;99.90;;;;;;5051979;28;20253;-78
2022/05/16 03:36:08;;;;;;;13.70;7.23;;;13.40;99.90;;;;;;5051228;28;20206;-78
2022/05/16 03:41:21;;;;;;;12.80;7.10;;;13.40;99.90;;;;;;5051430;28;20199;-78
2022/05/16 03:43:49;;;;;;;16.80;7.50;;;13.40;99.90;;;;;;5052008;28;20291;-78
2022/05/16 03:46:16;;;;;;;13.67;7.23;;;13.30;99.90;;;;;;5052200;28;20199;-78
2022/05/16 03:48:43;;;;;;;19.13;7.30;;;13.30;99.90;;;;;;5051408;28;20243;-78
2022/05/16 03:51:12;;;;;;;14.67;7.43;;;13.30;99.90;;;;;;5050895;28;20231;-78
2022/05/16 03:53:46;;;;;;;13.43;7.23;;;13.30;99.90;;;;;;5052098;28;20291;-78
2022/05/16 03:56:13;;;;;;;16.20;7.20;;;13.30;99.90;;;;;;5051804;28;20249;-78
2022/05/16 03:58:40;;;;;;;16.57;7.83;;;13.20;99.90;;;;;;5051670;28;20251;-78
2022/05/16 04:01:08;;;;;;;13.57;6.93;;;13.10;99.90;;;;;;5050979;28;20195;-78
2022/05/16 04:03:35;;;;;;;14.57;7.60;;;13.10;99.90;;;;;;5038908;28;20203;-78
2022/05/16 04:06:02;;;;;;;13.53;7.67;;;13.10;99.90;;;;;;5051547;28;20206;-78
2022/05/16 04:08:29;;;;;;;13.97;6.90;;;13.10;99.90;;;;;;5051349;28;20283;-78
2022/05/16 04:10:57;;;;;;;18.63;7.37;;;13.20;99.90;;;;;;5051591;28;20277;-78
2022/05/16 04:13:26;;;;;;;14.47;7.20;;;13.20;99.90;;;;;;5050751;28;20318;-78
2022/05/16 04:15:53;;;;;;;17.40;7.33;;;13.10;99.90;;;;;;5051701;28;20192;-78
2022/05/16 04:18:20;;;;;;;14.57;6.90;;;13.00;99.90;;;;;;5051145;28;20223;-78
2022/05/16 04:20:47;;;;;;;12.33;7.10;;;13.00;99.90;;;;;;5050513;28;20286;-78
2022/05/16 04:23:14;;;;;;;13.13;7.20;;;13.00;99.90;;;;;;5054795;28;20206;-78
2022/05/16 04:25:41;;;;;;;14.30;7.27;;;13.00;99.90;;;;;;5055350;28;20286;-78
2022/05/16 04:28:11;;;;;;;16.70;6.90;;;12.90;99.90;;;;;;5055319;28;20195;-78
2022/05/16 04:30:39;;;;;;;15.83;7.57;;;12.90;99.90;;;;;;5055323;28;20231;-78
2022/05/16 04:33:07;;;;;;;15.67;7.60;;;12.80;99.90;;;;;;5054989;28;20286;-78
2022/05/16 04:35:36;;;;;;;15.57;7.03;;;12.80;99.90;;;;;;5053062;28;20238;-78
2022/05/16 04:38:04;;;;;;;14.50;7.03;;;12.80;99.90;;;;;;5054950;28;20555;-78
2022/05/16 04:40:31;;;;;;;13.60;7.03;;;12.80;99.90;;;;;;5048760;28;20254;-78
2022/05/16 04:42:58;;;;;;;15.90;7.47;;;12.90;99.90;;;;;;5053860;28;20278;-78
2022/05/16 04:45:28;;;;;;;11.93;6.70;;;12.80;99.90;;;;;;5054435;28;20671;-78
2022/05/16 04:47:58;;;;;;;12.77;7.20;;;12.80;99.90;;;;;;5054577;28;20234;-78
2022/05/16 04:50:27;;;;;;;16.53;7.20;;;12.80;99.90;;;;;;5054114;28;20228;-78
2022/05/16 04:52:54;;;;;;;14.87;7.40;;;12.90;99.90;;;;;;5054551;28;20234;-78
2022/05/16 04:55:22;;;;;;;18.67;7.60;;;12.90;99.90;;;;;;5054896;28;20238;-78
2022/05/16 04:57:49;;;;;;;19.33;7.17;;;12.90;99.90;;;;;;5054220;28;20296;-78
2022/05/16 05:00:18;;;;;;;14.70;6.73;;;12.90;99.90;;;;;;5053402;28;20257;-78
2022/05/16 05:02:47;;;;;;;12.27;6.77;;;12.90;99.90;;;;;;5053768;28;20210;-79
2022/05/16 05:05:15;;;;;;;13.50;6.87;;;13.00;99.90;;;;;;5053849;28;20224;-78
2022/05/16 05:07:43;;;;;;;14.77;7.20;;;13.10;99.90;;;;;;5054101;28;20227;-80
2022/05/16 05:15:42;;;;;;;17.87;6.67;;;13.30;99.90;;;;;;5053833;28;20777;-79
2022/05/16 05:18:11;;;;;;;15.87;6.60;;;13.30;99.90;;;;;;5053464;28;20234;-80
2022/05/16 05:20:39;;;;;;;14.13;7.50;;;13.50;99.90;;;;;;5053197;28;20228;-79
2022/05/16 05:23:06;;;;;;;15.43;7.30;;;13.50;99.90;;;;;;5053682;28;20291;-78
2022/05/16 05:25:34;;;;;;;15.47;7.40;;;13.60;99.90;;;;;;5054085;28;20290;-79
2022/05/16 05:28:02;;;;;;;16.97;7.80;;;13.80;99.90;;;;;;5053252;28;20294;-79
2022/05/16 05:30:30;;;;;;;17.20;7.37;;;14.00;99.90;;;;;;5053971;28;20199;-80
2022/05/16 05:32:57;;;;;;;11.07;6.40;;;14.20;99.90;;;;;;5052628;28;20200;-80
2022/05/16 05:35:26;;;;;;;13.97;7.10;;;14.30;99.90;;;;;;5053686;28;20283;-79
2022/05/16 05:37:55;;;;;;;13.13;6.50;;;14.70;99.90;;;;;;5053488;28;20666;-80
2022/05/16 05:40:23;;;;;;;13.10;5.83;;;15.30;99.90;;;;;;5052696;28;20211;-81
2022/05/16 05:42:50;;;;;;;11.43;6.00;;;15.70;99.90;;;;;;5053784;28;20273;-81
2022/05/16 05:45:18;;;;;;;10.97;5.17;;;16.20;99.90;;;;;;5050950;28;20799;-80
2022/05/16 05:47:44;;;;;;;10.20;5.57;;;16.40;99.90;;;;;;5050503;28;20287;-81
2022/05/16 05:50:12;;;;;;;10.80;4.63;;;16.90;99.90;;;;;;5051280;28;20234;-80
2022/05/16 05:52:40;;;;;;;10.30;4.47;;;17.40;99.90;;;;;;5053657;28;20678;-80
2022/05/16 05:55:08;;;;;;;14.90;5.00;;;17.60;99.90;;;;;;5051923;28;20200;-79
2022/05/16 05:57:35;;;;;;;11.07;4.88;;;18.30;99.90;;;;;;5050973;28;20224;-77
2022/05/16 06:00:04;;;;;;;11.18;4.55;;;18.60;99.90;;;;;;5044297;28;20243;-78
2022/05/16 06:02:31;;;;;;;9.73;4.50;;;19.70;99.90;;;;;;5046737;28;20242;-77
2022/05/16 06:04:58;;;;;;;11.77;4.10;;;20.60;99.90;;;;;;5052128;28;20195;-78
2022/05/16 06:07:24;;;;;;;10.60;3.83;;;21.10;99.90;;;;;;5051157;28;20246;-79
2022/05/16 06:09:53;;;;;;;10.68;4.53;;;21.80;99.90;;;;;;5051408;28;20251;-78
2022/05/16 06:12:19;;;;;;;11.00;3.78;;;22.10;99.90;;;;;;5051758;28;20284;-78
2022/05/16 06:14:46;;;;;;;8.77;3.92;;;22.80;99.90;;;;;;5048155;28;20319;-78
2022/05/16 06:17:14;;;;;;;9.02;3.60;;;22.90;99.90;;;;;;5051842;28;20223;-78
2022/05/16 06:19:40;;;;;;;9.15;3.92;;;22.20;99.90;;;;;;5052416;28;20255;-78
2022/05/16 06:22:08;;;;;;;9.65;3.83;;;21.30;99.90;;;;;;5052069;28;20283;-78
2022/05/16 06:27:20;;;;;;;9.32;4.00;;;19.60;99.90;;;;;;5052059;28;20203;-80
2022/05/16 06:29:47;;;;;;;11.55;4.50;;;19.30;99.90;;;;;;5051898;28;20192;-80
2022/05/16 06:32:14;;;;;;;10.63;4.07;;;18.40;99.90;;;;;;5052084;28;20282;-80
2022/05/16 06:34:41;;;;;;;12.00;4.93;;;17.90;99.90;;;;;;5052594;28;20261;-79
2022/05/16 06:37:08;;;;;;;9.07;3.75;;;18.60;99.90;;;;;;5051614;28;20286;-80
2022/05/16 06:39:35;;;;;;;7.50;3.50;;;20.20;99.90;;;;;;5052502;28;20378;-80
2022/05/16 06:42:02;;;;;;;9.32;3.70;;;22.20;99.90;;;;;;5051973;28;20226;-79
2022/05/16 06:44:30;;;;;;;11.68;3.80;;;22.40;99.90;;;;;;5052108;28;20275;-79
2022/05/16 06:46:57;;;;;;;8.88;3.20;;;22.50;99.90;;;;;;5051831;28;20234;-79
2022/05/16 06:49:24;;;;;;;8.80;3.25;;;23.00;99.90;;;;;;5051786;28;20274;-79
2022/05/16 06:51:51;;;;;;;8.10;3.17;;;23.90;99.90;;;;;;5051383;28;20235;-79
2022/05/16 06:54:18;;;;;;;8.63;2.90;;;24.30;99.90;;;;;;5051589;28;20238;-79
2022/05/16 06:56:45;;;;;;;26.15;7.50;;;24.80;99.90;;;;;;5050737;28;20234;-80
2022/05/16 06:59:12;;;;;;;15.18;5.10;;;25.40;99.90;;;;;;5051249;28;20282;-80
2022/05/16 07:01:40;;;;;;;12.68;5.03;;;25.10;99.90;;;;;;5050897;28;20665;-79
2022/05/16 07:04:07;;;;;;;9.70;3.92;;;25.40;99.90;;;;;;5050775;28;20311;-80
2022/05/16 07:06:34;;;;;;;7.55;3.67;;;25.20;99.90;;;;;;5052021;28;20242;-81
2022/05/16 07:09:01;;;;;;;17.27;4.63;;;25.60;99.90;;;;;;5050506;28;20281;-80
2022/05/16 07:11:29;;;;;;;12.70;4.13;;;25.10;99.90;;;;;;5048801;28;20290;-81
2022/05/16 07:13:56;;;;;;;9.18;4.45;;;25.80;99.90;;;;;;5050935;28;20234;-82
2022/05/16 07:16:23;;;;;;;9.75;3.25;;;25.30;99.90;;;;;;5050619;28;20280;-81
2022/05/16 07:18:52;;;;;;;8.60;2.70;;;25.00;99.90;;;;;;5052179;28;20235;-81
2022/05/16 07:21:18;;;;;;;10.20;2.97;;;25.60;99.90;;;;;;5049759;28;20343;-80
2022/05/16 07:23:46;;;;;;;9.18;2.75;;;25.40;99.90;;;;;;5051802;28;20679;-81
2022/05/16 07:28:58;;;;;;;8.05;3.08;;;25.20;99.90;;;;;;5051048;28;20206;-80
2022/05/16 07:31:26;;;;;;;5.70;2.15;;;24.90;99.90;;;;;;5050156;28;20290;-81
2022/05/16 07:33:54;;;;;;;9.27;2.58;;;25.30;99.90;;;;;;5050579;28;20238;-81
2022/05/16 07:36:21;;;;;;;7.93;2.40;;;23.80;99.90;;;;;;5051640;28;20269;-80
2022/05/16 07:38:48;;;;;;;6.43;2.38;;;23.80;99.90;;;;;;5051430;28;20227;-80
2022/05/16 07:41:15;;;;;;;9.45;2.60;;;23.60;99.90;;;;;;5050615;28;20224;-80
2022/05/16 07:43:43;;;;;;;8.10;2.22;;;24.20;99.90;;;;;;5051331;28;20199;-81
2022/05/16 07:46:10;;;;;;;6.30;2.00;;;25.00;99.90;;;;;;5051115;28;20210;-80
2022/05/16 07:48:37;;;;;;;7.70;2.20;;;24.30;99.90;;;;;;5050196;28;20200;-80
2022/05/16 07:51:05;;;;;;;8.05;5.53;;;23.90;99.90;;;;;;5048785;28;20291;-81
2022/05/16 07:53:32;;;;;;;9.93;5.18;;;24.40;99.90;;;;;;5050783;28;20254;-80
2022/05/16 07:56:00;;;;;;;4.32;2.20;;;25.00;99.90;;;;;;5050912;28;20250;-81
2022/05/16 07:58:27;;;;;;;5.70;1.77;;;25.80;99.90;;;;;;5054758;28;20199;-81
2022/05/16 08:00:55;;;;;;;8.43;2.00;;;26.20;99.90;;;;;;5054405;28;20310;-81
2022/05/16 08:03:24;;;;;;;10.48;2.80;;;26.80;99.90;;;;;;5052453;28;20294;-81
2022/05/16 08:05:51;;;;;;;5.15;2.15;;;27.70;99.90;;;;;;5049162;28;20742;-81
2022/05/16 08:11:04;;;;;;;5.03;2.08;;;25.40;99.90;;;;;;5052421;28;20321;-80
2022/05/16 08:13:32;;;;;;;4.90;1.98;;;24.60;99.90;;;;;;5053757;28;20235;-81
2022/05/16 08:16:00;;;;;;;4.60;1.75;;;;;;;;;;5052751;28;20220;-82
2022/05/16 08:18:27;;;;;;;5.45;1.80;;;27.70;99.90;;;;;;5053319;28;20282;-82
2022/05/16 08:20:54;;;;;;;10.85;1.92;;;28.20;99.90;;;;;;5049240;28;20323;-81
2022/05/16 08:23:26;;;;;;;5.07;2.13;;;28.10;99.90;;;;;;5054993;28;20246;-82
2022/05/16 08:25:53;;;;;;;5.20;1.83;;;29.00;99.90;;;;;;5053930;28;20210;-81
2022/05/16 08:28:22;;;;;;;7.90;2.05;;;28.10;99.90;;;;;;5053299;28;20224;-82
2022/05/16 08:30:49;;;;;;;5.30;1.60;;;25.60;99.90;;;;;;5052105;28;20202;-82
2022/05/16 08:33:17;;;;;;;6.20;2.00;;;27.50;99.90;;;;;;5051978;28;20207;-82
2022/05/16 08:35:44;;;;;;;4.40;1.90;;;27.40;99.90;;;;;;5051924;28;20196;-81
2022/05/16 08:41:01;;;;;;;5.18;1.80;;;27.10;99.90;;;;;;5051819;28;20230;-81
2022/05/16 08:43:49;;;;;;;3.63;1.70;;;28.10;99.90;;;;;;5043876;28;20204;-81
2022/05/16 08:46:33;;;;;;;6.38;1.63;;;27.40;99.90;;;;;;5041818;28;20211;-81
2022/05/16 08:49:12;;;;;;;5.97;2.28;;;28.60;99.90;;;;;;5054175;28;20282;-81
2022/05/16 08:51:42;;;;;;;5.75;1.90;;;27.40;99.90;;;;;;5054036;28;20282;-81
2022/05/16 08:54:13;;;;;;;7.45;1.95;;;27.10;99.90;;;;;;5033536;28;20771;-81
2022/05/16 08:56:47;;;;;;;5.80;2.55;;;26.70;99.90;;;;;;5046138;28;20844;-81
2022/05/16 08:59:17;;;;;;;13.40;2.58;;;25.10;99.90;;;;;;5053358;28;20215;-82
2022/05/16 09:01:51;;;;;;;6.30;1.92;;;26.30;99.90;;;;;;5053235;28;20597;-81
2022/05/16 09:04:23;;;;;;;5.30;2.00;;;25.10;99.90;;;;;;5053014;28;20200;-81
2022/05/16 09:06:57;;;;;;;6.90;2.20;;;27.70;99.90;;;;;;5052965;28;20230;-81
2022/05/16 09:09:28;;;;;;;6.75;2.30;;;25.90;99.90;;;;;;5052188;28;20254;-81
2022/05/16 09:12:05;;;;;;;4.63;1.90;;;27.20;99.90;;;;;;5052476;28;20328;-81
2022/05/16 09:14:46;;;;;;;7.90;2.00;;;25.80;99.90;;;;;;5046678;28;20242;-81
2022/05/16 09:17:22;;;;;;;4.88;1.92;;;25.70;99.90;;;;;;5053032;28;20202;-81
2022/05/16 09:20:13;;;;;;;3.92;1.70;;;26.20;99.90;;;;;;5053319;28;20218;-81
2022/05/16 09:22:47;;;;;;;3.95;1.50;;;27.60;99.90;;;;;;5054031;28;20242;-81
2022/05/16 09:25:20;;;;;;;5.07;1.77;;;29.20;99.90;;;;;;5053469;28;20235;-80
2022/05/16 09:30:41;;;;;;;3.15;1.70;;;27.40;99.90;;;;;;5052969;28;20207;-80
2022/05/16 09:33:12;;;;;;;5.00;2.33;;;28.50;99.90;;;;;;5052916;28;20200;-81
2022/05/16 09:35:52;;;;;;;5.55;2.50;;;29.20;99.90;;;;;;5048718;28;20327;-81
2022/05/16 09:38:20;;;;;;;6.07;2.65;;;26.30;99.90;;;;;;5053191;28;20287;-80
2022/05/16 09:41:11;;;;;;;4.47;1.85;;;27.50;99.90;;;;;;5053018;28;20215;-81
2022/05/16 09:43:43;;;;;;;6.05;1.85;;;28.10;99.90;;;;;;5053313;28;20204;-81
2022/05/16 09:46:23;;;;;;;5.90;2.15;;;25.40;99.90;;;;;;5051167;28;20282;-81
2022/05/16 09:49:04;;;;;;;5.78;2.30;;;26.10;99.90;;;;;;5052035;28;20286;-82
2022/05/16 09:51:31;;;;;;;10.68;6.85;;;27.80;99.90;;;;;;5051367;28;20217;-80
2022/05/16 09:54:13;;;;;;;4.75;1.95;;;27.70;99.90;;;;;;5052428;28;20241;-81
2022/05/16 09:56:51;;;;;;;6.60;3.83;;;29.10;99.90;;;;;;5050693;28;20196;-81
2022/05/16 09:59:35;;;;;;;7.63;2.00;;;29.30;99.90;;;;;;5048265;28;20282;-81
2022/05/16 10:02:11;;;;;;;7.25;3.38;;;28.40;99.90;;;;;;5052518;28;20311;-82
2022/05/16 10:04:42;;;;;;;7.50;4.43;;;28.60;99.90;;;;;;5051760;28;20276;-80
2022/05/16 10:07:10;;;;;;;4.30;2.05;;;28.50;99.90;;;;;;5048078;28;20286;-81
2022/05/16 10:09:41;;;;;;;5.88;1.75;;;29.10;99.90;;;;;;5052361;28;20306;-81
2022/05/16 10:12:11;;;;;;;4.13;1.50;;;30.80;94.90;;;;;;5050271;28;20269;-81
2022/05/16 10:14:39;;;;;;;11.20;1.65;;;31.10;91.80;;;;;;5052357;28;20281;-82
2022/05/16 10:17:09;;;;;;;4.78;1.80;;;30.00;86.50;;;;;;5052491;28;20307;-81
2022/05/16 10:19:39;;;;;;;3.60;1.30;;;28.60;95.40;;;;;;5052505;28;20261;-81
2022/05/16 10:22:08;;;;;;;4.68;1.40;;;27.70;99.90;;;;;;5052282;28;20311;-81
2022/05/16 10:24:42;;;;;;;6.00;1.77;;;26.10;99.90;;;;;;5052301;28;20287;-81
2022/05/16 10:27:12;;;;;;;3.42;1.50;;;25.80;99.90;;;;;;5052797;28;20646;-80
2022/05/16 10:29:44;;;;;;;5.30;1.45;;;25.60;99.90;;;;;;5053033;28;20204;-80
2022/05/16 10:35:03;;;;;;;3.95;1.30;;;29.40;91.20;;;;;;5052808;28;20195;-81
2022/05/16 10:37:32;;;;;;;3.17;1.23;;;28.60;95.80;;;;;;5052365;28;20679;-80
2022/05/16 10:40:06;;;;;;;6.57;1.50;;;28.70;96.50;;;;;;5051059;28;20223;-80
2022/05/16 10:42:37;;;;;;;3.40;1.15;;;27.80;96.60;;;;;;5047627;28;20277;-81
2022/05/16 10:45:12;;;;;;;3.47;1.40;;;26.90;99.10;;;;;;5051547;28;20204;-80
2022/05/16 10:47:47;;;;;;;3.83;1.35;;;26.20;99.90;;;;;;5051582;28;20706;-80
2022/05/16 10:50:19;;;;;;;6.15;1.45;;;26.10;99.90;;;;;;5050862;28;20227;-80
2022/05/16 10:52:51;;;;;;;5.95;1.45;;;25.50;99.90;;;;;;5051027;28;20279;-80
2022/05/16 10:55:18;;;;;;;3.33;1.70;;;25.10;99.90;;;;;;5051736;28;20246;-80
2022/05/16 10:58:10;;;;;;;6.35;1.58;;;25.10;99.90;;;;;;5051718;28;20287;-80
2022/05/16 11:00:45;;;;;;;3.13;1.52;;;25.30;99.90;;;;;;5051179;28;20282;-80
2022/05/16 11:03:40;;;;;;;4.00;1.45;;;25.20;99.90;;;;;;5050862;28;20227;-79
2022/05/16 11:06:19;;;;;;;4.00;1.70;;;26.10;99.90;;;;;;5050436;28;20238;-79
2022/05/16 11:08:57;;;;;;;5.40;1.50;;;26.40;99.90;;;;;;5043897;28;20239;-79
2022/05/16 11:11:31;;;;;;;4.78;1.75;;;25.90;99.90;;;;;;5051796;28;20257;-80
2022/05/16 11:14:06;;;;;;;3.40;1.50;;;25.90;99.90;;;;;;5051569;28;20318;-79
2022/05/16 11:16:37;;;;;;;5.22;1.58;;;25.50;99.90;;;;;;5051710;28;20593;-80
2022/05/16 11:19:17;;;;;;;3.90;1.50;;;25.20;99.90;;;;;;5051487;28;20196;-81
2022/05/16 11:21:50;;;;;;;2.58;1.48;;;25.10;99.90;;;;;;5050637;28;20303;-81
2022/05/16 11:24:28;;;;;;;3.28;1.30;;;25.00;99.90;;;;;;5051169;28;20686;-82
2022/05/16 11:27:03;;;;;;;3.45;1.23;;;24.70;99.90;;;;;;5047633;28;20722;-82
2022/05/16 11:29:39;;;;;;;4.88;1.40;;;24.80;99.90;;;;;;5051161;28;20674;-82
2022/05/16 11:32:25;;;;;;;3.38;1.25;;;24.50;99.90;;;;;;5049085;28;20200;-81
2022/05/16 11:35:02;;;;;;;3.13;1.65;;;24.30;99.90;;;;;;5051339;28;20274;-82
2022/05/16 11:37:43;;;;;;;3.03;1.40;;;24.50;99.90;;;;;;5051229;28;20196;-82
2022/05/16 11:40:18;;;;;;;4.03;1.40;;;24.00;99.90;;;;;;5051547;28;20624;-81
2022/05/16 11:42:54;;;;;;;3.95;1.38;;;24.20;99.90;;;;;;5051207;28;20255;-82
2022/05/16 11:45:33;;;;;;;5.13;1.40;;;24.20;99.90;;;;;;5050928;28;20757;-81
2022/05/16 11:48:20;;;;;;;4.47;1.60;;;24.30;99.90;;;;;;5043845;28;20215;-81
2022/05/16 11:50:53;;;;;;;3.47;1.23;;;24.40;99.90;;;;;;5050240;28;20199;-81
2022/05/16 11:53:42;;;;;;;5.63;1.65;;;24.70;99.90;;;;;;5051091;28;20224;-81
2022/05/16 12:02:15;;;;;;;3.45;1.48;;;25.80;99.90;;;;;;5051260;28;20631;-80
2022/05/16 12:04:46;;;;;;;3.58;1.45;;;26.80;99.90;;;;;;5052323;28;20642;-80
2022/05/16 12:07:21;;;;;;;2.58;1.20;;;26.90;99.90;;;;;;5034991;28;20240;-81
2022/05/16 12:09:55;;;;;;;4.18;1.42;;;29.30;99.60;;;;;;5050341;28;20306;-81
2022/05/16 12:12:35;;;;;;;4.15;1.63;;;31.10;82.90;;;;;;5050920;28;20195;-81
2022/05/16 12:15:14;;;;;;;4.00;1.60;;;30.30;43.30;;;;;;5050673;28;20203;-81
2022/05/16 12:17:50;;;;;;;2.60;1.10;;;30.20;63.80;;;;;;5043550;28;20728;-81
2022/05/16 12:20:39;;;;;;;6.18;1.50;;;29.50;73.40;;;;;;5035115;28;20226;-82
2022/05/16 12:23:08;;;;;;;2.65;1.42;;;29.30;60.60;;;;;;5050848;28;20663;-81
2022/05/16 12:25:37;;;;;;;3.88;1.65;;;28.10;88.40;;;;;;5051321;28;20261;-81
2022/05/16 12:28:21;;;;;;;4.18;1.45;;;27.70;93.60;;;;;;5050653;28;20196;-82
2022/05/16 12:30:53;;;;;;;3.78;1.35;;;28.40;93.70;;;;;;5051117;28;20286;-81
2022/05/16 12:33:51;;;;;;;3.45;1.30;;;28.80;83.30;;;;;;5044225;28;20210;-82
2022/05/16 12:36:21;;;;;;;3.47;1.50;;;28.70;72.30;;;;;;5050509;28;20683;-82
2022/05/16 12:38:54;;;;;;;3.30;1.60;;;28.80;94.30;;;;;;5050970;28;20258;-81
2022/05/16 12:41:50;;;;;;;4.30;1.40;;;27.90;85.70;;;;;;5050416;28;20251;-81
2022/05/16 12:44:34;;;;;;;2.90;1.30;;;27.90;95.90;;;;;;5053933;28;20203;-81
2022/05/16 12:47:32;;;;;;;4.30;1.40;;;27.00;97.40;;;;;;5054756;28;20651;-81
2022/05/16 12:50:25;;;;;;;6.18;1.58;;;26.80;99.90;;;;;;5054396;28;20282;-81
2022/05/16 12:53:19;;;;;;;4.03;1.45;;;26.10;99.90;;;;;;5041850;28;20230;-81
2022/05/16 12:55:57;;;;;;;3.38;1.50;;;25.50;99.90;;;;;;5054518;28;20228;-81
2022/05/16 12:58:35;;;;;;;3.60;1.42;;;24.60;99.90;;;;;;5054432;28;20208;-81
2022/05/16 13:01:11;;;;;;;4.90;1.77;;;23.90;99.90;;;;;;5055032;28;20287;-81
2022/05/16 13:03:49;;;;;;;5.38;1.77;;;23.80;99.90;;;;;;5043659;28;20217;-81
2022/05/16 13:06:37;;;;;;;4.60;1.60;;;24.10;99.90;;;;;;5054035;28;20291;-81
2022/05/16 13:09:15;;;;;;;24.05;2.70;;;23.80;99.90;;;;;;5054678;28;20259;-81
2022/05/16 13:11:51;;;;;;;3.72;1.40;;;24.30;99.90;;;;;;5053848;28;20737;-81
2022/05/16 13:14:24;;;;;;;3.85;1.38;;;24.70;99.90;;;;;;5053714;28;20309;-81
2022/05/16 13:16:54;;;;;;;5.00;1.27;;;24.70;99.90;;;;;;5053653;28;20203;-80
2022/05/16 13:19:23;;;;;;;4.15;1.35;;;25.60;99.90;;;;;;5053258;28;20789;-81
2022/05/16 13:21:54;;;;;;;3.58;1.60;;;26.00;99.90;;;;;;5054413;28;20212;-81
2022/05/16 13:24:24;;;;;;;4.22;1.50;;;25.30;99.90;;;;;;5054186;28;20277;-80
2022/05/16 13:29:40;;;;;;;4.38;1.38;;;24.80;99.90;;;;;;5053729;28;20199;-81
2022/05/16 13:32:13;;;;;;;3.60;1.40;;;24.90;99.90;;;;;;5053510;28;20729;-80
2022/05/16 13:34:46;;;;;;;5.50;1.77;;;24.90;99.90;;;;;;5053137;28;20199;-81
2022/05/16 13:37:17;;;;;;;4.93;1.50;;;24.70;99.90;;;;;;5053033;28;20200;-81
2022/05/16 13:39:50;;;;;;;4.32;1.20;;;24.30;99.90;;;;;;5053184;28;20206;-81
2022/05/16 13:42:21;;;;;;;5.25;1.42;;;24.80;99.90;;;;;;5053984;28;20227;-81